createdAt,value
2019-05-19T00:01:24.605Z,14.60
2019-05-19T00:03:54.399Z,14.50
2019-05-19T00:06:24.214Z,14.50
2019-05-19T00:08:53.870Z,14.30
2019-05-19T00:11:23.308Z,14.40
2019-05-19T00:13:53.130Z,14.40
2019-05-19T00:16:22.855Z,14.50
2019-05-19T00:18:53.568Z,14.40
2019-05-19T00:21:24.263Z,14.40
2019-05-19T00:23:53.942Z,14.40
2019-05-19T00:26:23.174Z,14.30
2019-05-19T00:28:52.184Z,14.30
2019-05-19T00:31:21.661Z,14.20
2019-05-19T00:33:51.511Z,14.10
2019-05-19T00:36:21.014Z,14.10
2019-05-19T00:38:50.611Z,14.10
2019-05-19T00:41:20.302Z,14.10
2019-05-19T00:43:49.710Z,14.10
2019-05-19T00:46:19.556Z,14.10
2019-05-19T00:48:49.172Z,13.90
2019-05-19T00:51:18.481Z,13.90
2019-05-19T00:53:47.771Z,14.00
2019-05-19T00:56:17.846Z,14.00
2019-05-19T00:58:47.702Z,13.90
2019-05-19T01:01:17.215Z,13.80
2019-05-19T01:03:46.327Z,13.70
2019-05-19T01:06:15.427Z,13.70
2019-05-19T01:08:46.846Z,13.60
2019-05-19T01:11:16.568Z,13.60
2019-05-19T01:13:46.247Z,13.70
2019-05-19T01:16:15.563Z,13.80
2019-05-19T01:18:44.874Z,13.90
2019-05-19T01:21:15.449Z,13.80
2019-05-19T01:23:45.675Z,13.70
2019-05-19T01:26:14.974Z,13.70
2019-05-19T01:28:44.589Z,13.70
2019-05-19T01:31:14.302Z,13.70
2019-05-19T01:33:43.613Z,13.70
2019-05-19T01:36:12.915Z,13.70
2019-05-19T01:38:42.256Z,13.70
2019-05-19T01:41:12.458Z,13.80
2019-05-19T01:43:41.859Z,13.90
2019-05-19T01:46:11.668Z,13.90
2019-05-19T01:48:41.319Z,14.10
2019-05-19T01:51:12.254Z,14.10
2019-05-19T01:53:41.852Z,14.10
2019-05-19T01:56:11.507Z,13.90
2019-05-19T01:58:40.952Z,14.00
2019-05-19T02:01:11.139Z,14.00
2019-05-19T02:03:40.345Z,14.20
2019-05-19T02:06:09.983Z,14.50
2019-05-19T02:08:38.060Z,14.40
2019-05-19T02:11:06.527Z,14.50
2019-05-19T02:13:34.704Z,14.20
2019-05-19T02:16:02.879Z,13.90
2019-05-19T02:18:31.286Z,13.70
2019-05-19T02:20:59.313Z,13.50
2019-05-19T02:23:27.712Z,13.30
2019-05-19T02:25:56.057Z,13.20
2019-05-19T02:28:24.490Z,13.10
2019-05-19T02:30:52.568Z,13.00
2019-05-19T02:33:21.941Z,12.90
2019-05-19T02:35:49.993Z,12.90
2019-05-19T02:38:18.330Z,13.00
2019-05-19T02:40:48.330Z,13.00
2019-05-19T02:43:18.609Z,13.00
2019-05-19T02:45:48.649Z,13.00
2019-05-19T02:48:17.954Z,12.80
2019-05-19T02:50:52.779Z,12.80
2019-05-19T02:53:20.958Z,13.00
2019-05-19T02:55:51.320Z,13.00
2019-05-19T02:58:22.827Z,12.90
2019-05-19T03:00:53.007Z,12.90
2019-05-19T03:03:22.683Z,13.00
2019-05-19T03:05:51.740Z,12.80
2019-05-19T03:08:20.952Z,12.60
2019-05-19T03:10:50.740Z,12.40
2019-05-19T03:13:19.844Z,12.30
2019-05-19T03:15:49.172Z,12.30
2019-05-19T03:18:18.868Z,12.30
2019-05-19T03:20:48.332Z,12.40
2019-05-19T03:23:17.703Z,12.40
2019-05-19T03:25:47.643Z,12.60
2019-05-19T03:28:16.672Z,12.70
2019-05-19T03:31:01.952Z,12.50
2019-05-19T03:33:33.584Z,12.30
2019-05-19T03:36:04.058Z,12.20
2019-05-19T03:38:33.749Z,12.20
2019-05-19T03:41:03.288Z,12.20
2019-05-19T03:43:32.595Z,12.10
2019-05-19T03:46:02.008Z,12.20
2019-05-19T03:48:31.418Z,12.00
2019-05-19T03:51:01.140Z,12.40
2019-05-19T03:53:30.838Z,12.60
2019-05-19T03:56:00.600Z,12.50
2019-05-19T03:58:30.257Z,12.50
2019-05-19T04:01:00.155Z,12.30
2019-05-19T04:03:29.578Z,12.20
2019-05-19T04:05:59.869Z,12.30
2019-05-19T04:08:29.775Z,12.50
2019-05-19T04:10:59.761Z,12.50
2019-05-19T04:13:29.151Z,12.50
2019-05-19T04:15:58.472Z,12.50
2019-05-19T04:18:27.955Z,12.70
2019-05-19T04:20:57.459Z,12.70
2019-05-19T04:23:27.482Z,12.40
2019-05-19T04:25:56.809Z,12.40
2019-05-19T04:28:26.324Z,12.70
2019-05-19T04:30:56.065Z,12.60
2019-05-19T04:33:25.748Z,12.50
2019-05-19T04:35:57.484Z,12.50
2019-05-19T04:38:26.490Z,12.30
2019-05-19T04:40:56.269Z,12.30
2019-05-19T04:43:25.513Z,12.40
2019-05-19T04:45:55.193Z,12.50
2019-05-19T04:48:25.496Z,12.50
2019-05-19T04:50:54.759Z,12.60
2019-05-19T04:53:24.322Z,12.50
2019-05-19T04:55:54.791Z,12.70
2019-05-19T04:58:27.050Z,12.90
2019-05-19T05:00:56.791Z,13.00
2019-05-19T05:03:26.044Z,12.90
2019-05-19T05:05:55.579Z,12.70
2019-05-19T05:08:30.403Z,12.60
2019-05-19T05:10:56.117Z,12.70
2019-05-19T05:13:26.040Z,12.80
2019-05-19T05:15:56.034Z,12.70
2019-05-19T05:18:26.037Z,12.80
2019-05-19T05:20:56.396Z,12.80
2019-05-19T05:23:26.175Z,12.80
2019-05-19T05:25:55.350Z,12.90
2019-05-19T05:28:25.085Z,13.00
2019-05-19T05:30:54.130Z,13.00
2019-05-19T05:33:24.337Z,13.10
2019-05-19T05:35:54.262Z,13.10
2019-05-19T05:38:24.027Z,13.00
2019-05-19T05:40:53.431Z,13.20
2019-05-19T05:43:22.868Z,13.20
2019-05-19T05:45:52.136Z,13.40
2019-05-19T05:48:21.193Z,13.50
2019-05-19T05:50:51.487Z,13.40
2019-05-19T05:53:20.860Z,13.30
2019-05-19T05:55:50.238Z,13.30
2019-05-19T05:58:19.591Z,13.40
2019-05-19T06:00:49.655Z,13.50
2019-05-19T06:03:18.914Z,13.50
2019-05-19T06:05:50.144Z,13.60
2019-05-19T06:08:19.973Z,13.80
2019-05-19T06:10:49.463Z,14.00
2019-05-19T06:13:18.540Z,14.20
2019-05-19T06:15:48.079Z,14.20
2019-05-19T06:18:17.790Z,14.40
2019-05-19T06:20:47.733Z,14.40
2019-05-19T06:23:17.004Z,14.20
2019-05-19T06:25:47.002Z,14.10
2019-05-19T06:28:17.904Z,14.20
2019-05-19T06:30:47.582Z,14.30
2019-05-19T06:33:17.040Z,14.50
2019-05-19T06:35:46.385Z,14.50
2019-05-19T06:38:15.633Z,14.60
2019-05-19T06:40:45.381Z,14.60
2019-05-19T06:43:15.327Z,14.80
2019-05-19T06:45:44.736Z,14.90
2019-05-19T06:48:14.086Z,14.80
2019-05-19T06:50:43.838Z,14.80
2019-05-19T06:53:14.701Z,14.90
2019-05-19T06:55:44.341Z,15.00
2019-05-19T06:58:13.576Z,15.20
2019-05-19T07:00:42.962Z,15.20
2019-05-19T07:03:12.420Z,15.10
2019-05-19T07:05:41.925Z,15.20
2019-05-19T07:08:11.310Z,15.20
2019-05-19T07:10:40.927Z,15.30
2019-05-19T07:13:13.183Z,15.50
2019-05-19T07:15:42.993Z,15.90
2019-05-19T07:18:17.770Z,16.00
2019-05-19T07:20:46.258Z,15.90
2019-05-19T07:23:27.211Z,15.90
2019-05-19T07:25:45.788Z,16.00
2019-05-19T07:28:13.920Z,16.60
2019-05-19T07:30:44.099Z,16.90
2019-05-19T07:33:14.467Z,16.80
2019-05-19T07:35:44.002Z,16.80
2019-05-19T07:38:12.204Z,16.90
2019-05-19T07:40:42.087Z,16.90
2019-05-19T07:43:13.321Z,16.80
2019-05-19T07:45:43.108Z,17.00
2019-05-19T07:48:15.525Z,17.00
2019-05-19T07:50:46.952Z,17.30
2019-05-19T07:53:17.617Z,17.30
2019-05-19T07:55:47.681Z,17.20
2019-05-19T07:58:17.696Z,17.20
2019-05-19T08:00:48.184Z,17.10
2019-05-19T08:03:19.137Z,17.30
2019-05-19T08:05:49.043Z,17.50
2019-05-19T08:08:18.288Z,17.60
2019-05-19T08:10:48.103Z,17.90
2019-05-19T08:13:22.396Z,18.30
2019-05-19T08:15:52.234Z,18.10
2019-05-19T08:18:22.235Z,18.20
2019-05-19T08:20:51.516Z,18.20
2019-05-19T08:23:21.233Z,18.20
2019-05-19T08:25:52.831Z,18.80
2019-05-19T08:28:22.379Z,19.30
2019-05-19T08:30:50.521Z,19.70
2019-05-19T08:33:19.145Z,20.50
2019-05-19T08:35:47.808Z,20.90
2019-05-19T08:38:15.911Z,21.30
2019-05-19T08:40:44.036Z,22.10
2019-05-19T08:43:12.342Z,22.90
2019-05-19T08:45:41.145Z,23.80
2019-05-19T08:48:09.386Z,23.80
2019-05-19T08:50:38.837Z,23.80
2019-05-19T08:53:07.351Z,24.40
2019-05-19T08:55:38.759Z,24.00
2019-05-19T08:58:07.426Z,24.00
2019-05-19T09:00:38.501Z,24.60
2019-05-19T09:03:06.406Z,25.00
2019-05-19T09:05:35.137Z,24.60
2019-05-19T09:08:03.668Z,25.60
2019-05-19T09:10:31.939Z,26.20
2019-05-19T09:13:00.678Z,27.20
2019-05-19T09:15:28.982Z,27.20
2019-05-19T09:17:57.326Z,27.50
2019-05-19T09:20:25.525Z,26.60
2019-05-19T09:22:54.386Z,27.30
2019-05-19T09:25:22.639Z,27.50
2019-05-19T09:27:51.418Z,28.10
2019-05-19T09:30:19.741Z,29.70
2019-05-19T09:32:48.195Z,29.20
2019-05-19T09:35:16.934Z,29.20
2019-05-19T09:37:45.579Z,30.00
2019-05-19T09:40:14.041Z,29.60
2019-05-19T09:42:42.439Z,29.50
2019-05-19T09:45:11.070Z,29.40
2019-05-19T09:47:39.286Z,29.80
2019-05-19T09:50:07.827Z,29.90
2019-05-19T09:52:36.227Z,29.50
2019-05-19T09:55:04.445Z,29.50
2019-05-19T09:57:32.671Z,29.70
2019-05-19T10:00:00.811Z,29.20
2019-05-19T10:02:28.899Z,29.80
2019-05-19T10:04:57.164Z,29.00
2019-05-19T10:07:25.360Z,29.20
2019-05-19T10:10:04.171Z,28.80
2019-05-19T10:12:32.282Z,29.50
2019-05-19T10:15:00.833Z,30.60
2019-05-19T10:17:30.402Z,30.80
2019-05-19T10:19:58.560Z,30.90
2019-05-19T10:22:27.355Z,30.10
2019-05-19T10:25:18.139Z,30.00
2019-05-19T10:27:26.197Z,29.60
2019-05-19T10:29:54.638Z,28.30
2019-05-19T10:32:23.136Z,26.80
2019-05-19T10:34:51.878Z,25.70
2019-05-19T10:37:20.018Z,25.70
2019-05-19T10:39:48.709Z,25.50
2019-05-19T10:42:17.387Z,25.50
2019-05-19T10:44:46.394Z,24.70
2019-05-19T10:47:16.414Z,24.30
2019-05-19T10:49:44.563Z,24.00
2019-05-19T10:52:14.905Z,23.80
2019-05-19T10:54:44.096Z,23.60
2019-05-19T10:57:14.056Z,23.20
2019-05-19T10:59:44.237Z,22.70
2019-05-19T11:02:13.435Z,22.60
2019-05-19T11:04:42.853Z,22.50
2019-05-19T11:07:12.658Z,22.60
2019-05-19T11:09:42.049Z,22.40
2019-05-19T11:12:11.835Z,22.20
2019-05-19T11:14:41.568Z,22.00
2019-05-19T11:17:12.123Z,21.90
2019-05-19T11:19:42.560Z,22.00
2019-05-19T11:22:12.085Z,22.00
2019-05-19T11:24:41.810Z,21.90
2019-05-19T11:27:11.202Z,22.00
2019-05-19T11:29:40.733Z,22.10
2019-05-19T11:32:12.064Z,22.10
2019-05-19T11:34:41.180Z,22.10
2019-05-19T11:37:10.585Z,22.20
2019-05-19T11:39:40.655Z,22.40
2019-05-19T11:42:10.279Z,22.40
2019-05-19T11:44:40.058Z,22.20
2019-05-19T11:47:09.432Z,22.10
2019-05-19T11:49:39.003Z,22.10
2019-05-19T11:52:10.255Z,22.10
2019-05-19T11:54:39.279Z,22.20
2019-05-19T11:57:08.755Z,22.10
2019-05-19T11:59:42.421Z,22.00
2019-05-19T12:02:11.771Z,22.00
2019-05-19T12:04:42.227Z,22.10
2019-05-19T12:07:20.795Z,22.20
2019-05-19T12:09:52.494Z,22.20
2019-05-19T12:12:22.120Z,22.20
2019-05-19T12:14:51.989Z,22.20
2019-05-19T12:17:22.382Z,22.00
2019-05-19T12:19:51.936Z,22.00
2019-05-19T12:22:21.380Z,22.10
2019-05-19T12:24:50.497Z,22.30
2019-05-19T12:27:22.427Z,22.30
2019-05-19T12:29:51.902Z,22.10
2019-05-19T12:32:21.594Z,22.10
2019-05-19T12:34:51.047Z,21.90
2019-05-19T12:37:20.976Z,21.80
2019-05-19T12:39:50.540Z,21.90
2019-05-19T12:42:20.100Z,21.80
2019-05-19T12:44:51.026Z,21.90
2019-05-19T12:47:20.548Z,22.00
2019-05-19T12:49:50.088Z,22.10
2019-05-19T12:52:19.593Z,22.10
2019-05-19T12:54:49.055Z,22.10
2019-05-19T12:57:21.049Z,22.10
2019-05-19T12:59:50.104Z,22.00
2019-05-19T13:02:19.920Z,21.80
2019-05-19T13:05:04.134Z,21.80
2019-05-19T13:07:29.716Z,21.80
2019-05-19T13:09:59.025Z,21.90
2019-05-19T13:12:31.092Z,21.80
2019-05-19T13:15:00.686Z,22.00
2019-05-19T13:17:30.237Z,22.10
2019-05-19T13:19:59.841Z,22.00
2019-05-19T13:22:30.572Z,22.10
2019-05-19T13:24:59.966Z,22.10
2019-05-19T13:27:30.004Z,22.00
2019-05-19T13:30:00.179Z,21.90
2019-05-19T13:32:30.032Z,21.90
2019-05-19T13:34:59.627Z,21.90
2019-05-19T13:37:32.606Z,21.90
2019-05-19T13:40:07.335Z,22.00
2019-05-19T13:42:57.677Z,22.00
2019-05-19T13:45:29.697Z,22.00
2019-05-19T13:47:59.643Z,22.00
2019-05-19T13:50:32.498Z,22.00
2019-05-19T13:53:07.161Z,22.10
2019-05-19T13:55:36.494Z,22.20
2019-05-19T13:58:08.231Z,22.20
2019-05-19T14:00:38.110Z,22.20
2019-05-19T14:03:17.390Z,22.20
2019-05-19T14:05:49.118Z,22.10
2019-05-19T14:08:19.997Z,21.90
2019-05-19T14:10:54.832Z,21.80
2019-05-19T14:13:27.514Z,21.80
2019-05-19T14:16:01.239Z,21.90
2019-05-19T14:18:42.289Z,21.90
2019-05-19T14:21:13.985Z,21.90
2019-05-19T14:23:46.864Z,22.00
2019-05-19T14:26:15.077Z,22.00
2019-05-19T14:28:46.314Z,21.90
2019-05-19T14:31:16.121Z,21.90
2019-05-19T14:33:51.222Z,22.00
2019-05-19T14:36:30.386Z,21.90
2019-05-19T14:39:09.316Z,21.90
2019-05-19T14:41:44.036Z,21.90
2019-05-19T14:44:12.438Z,21.90
2019-05-19T14:46:40.912Z,21.80
2019-05-19T14:49:09.070Z,21.70
2019-05-19T14:51:37.273Z,21.70
2019-05-19T14:54:05.342Z,21.70
2019-05-19T14:56:33.852Z,21.80
2019-05-19T14:59:01.990Z,22.00
2019-05-19T15:01:30.154Z,22.10
2019-05-19T15:04:01.157Z,22.10
2019-05-19T15:06:32.666Z,22.10
2019-05-19T15:09:01.420Z,22.00
2019-05-19T15:11:31.065Z,22.00
2019-05-19T15:14:00.842Z,21.90
2019-05-19T15:16:28.936Z,21.80
2019-05-19T15:18:56.949Z,21.70
2019-05-19T15:21:25.108Z,21.70
2019-05-19T15:23:55.152Z,21.70
2019-05-19T15:26:23.278Z,21.70
2019-05-19T15:28:52.499Z,21.90
2019-05-19T15:31:20.994Z,22.00
2019-05-19T15:33:49.430Z,22.10
2019-05-19T15:36:17.506Z,21.90
2019-05-19T15:39:50.838Z,21.80
2019-05-19T15:41:18.146Z,21.80
2019-05-19T15:43:47.378Z,21.80
2019-05-19T15:46:18.945Z,21.90
2019-05-19T15:48:47.395Z,21.80
2019-05-19T15:51:27.583Z,21.70
2019-05-19T15:53:45.987Z,21.80
2019-05-19T15:56:14.870Z,21.80
2019-05-19T15:58:43.265Z,21.80
2019-05-19T16:01:11.916Z,21.80
2019-05-19T16:03:41.334Z,21.70
2019-05-19T16:06:12.588Z,21.70
2019-05-19T16:08:49.726Z,21.80
2019-05-19T16:11:21.801Z,21.80
2019-05-19T16:13:54.799Z,21.70
2019-05-19T16:16:22.885Z,21.70
2019-05-19T16:18:53.265Z,21.60
2019-05-19T16:21:22.227Z,21.50
2019-05-19T16:23:51.646Z,21.60
2019-05-19T16:26:21.815Z,21.50
2019-05-19T16:28:51.315Z,21.60
2019-05-19T16:31:22.831Z,21.70
2019-05-19T16:33:52.316Z,21.60
2019-05-19T16:36:23.921Z,21.70
2019-05-19T16:38:53.575Z,21.70
2019-05-19T16:41:22.991Z,21.70
2019-05-19T16:43:52.111Z,21.80
2019-05-19T16:46:21.513Z,21.80
2019-05-19T16:48:50.914Z,21.70
2019-05-19T16:51:20.597Z,21.80
2019-05-19T16:53:56.894Z,21.80
2019-05-19T16:56:28.703Z,21.80
2019-05-19T16:58:59.746Z,21.80
2019-05-19T17:01:29.703Z,21.80
2019-05-19T17:04:00.794Z,21.80
2019-05-19T17:06:30.129Z,21.90
2019-05-19T17:08:59.820Z,21.70
2019-05-19T17:11:29.279Z,21.70
2019-05-19T17:14:01.411Z,21.70
2019-05-19T17:16:31.397Z,21.80
2019-05-19T17:19:00.968Z,21.80
2019-05-19T17:21:30.441Z,21.70
2019-05-19T17:24:00.306Z,21.60
2019-05-19T17:26:29.879Z,21.60
2019-05-19T17:29:01.178Z,21.60
2019-05-19T17:31:31.949Z,21.60
2019-05-19T17:34:01.789Z,21.50
2019-05-19T17:36:31.707Z,21.50
2019-05-19T17:39:04.897Z,21.60
2019-05-19T17:41:34.803Z,21.60
2019-05-19T17:44:05.027Z,21.60
2019-05-19T17:46:34.331Z,21.50
2019-05-19T17:49:03.631Z,21.50
2019-05-19T17:51:33.585Z,21.50
2019-05-19T17:54:03.427Z,21.40
2019-05-19T17:56:33.708Z,21.10
2019-05-19T17:59:16.071Z,21.00
2019-05-19T18:01:36.397Z,20.60
2019-05-19T18:04:05.798Z,20.40
2019-05-19T18:06:35.533Z,20.10
2019-05-19T18:09:05.446Z,19.90
2019-05-19T18:11:35.035Z,19.80
2019-05-19T18:14:04.825Z,19.80
2019-05-19T18:16:33.972Z,19.60
2019-05-19T18:19:05.330Z,19.70
2019-05-19T18:21:34.207Z,19.50
2019-05-19T18:24:04.276Z,19.40
2019-05-19T18:26:35.891Z,19.20
2019-05-19T18:29:05.965Z,19.10
2019-05-19T18:31:35.253Z,19.10
2019-05-19T18:34:04.682Z,19.10
2019-05-19T18:36:34.914Z,19.10
2019-05-19T18:39:05.423Z,19.30
2019-05-19T18:41:34.755Z,19.40
2019-05-19T18:44:06.613Z,19.30
2019-05-19T18:46:36.679Z,19.20
2019-05-19T18:49:06.154Z,19.10
2019-05-19T18:51:41.591Z,19.20
2019-05-19T18:54:11.168Z,19.00
2019-05-19T18:56:41.063Z,19.00
2019-05-19T18:59:10.551Z,18.70
2019-05-19T19:01:41.063Z,18.40
2019-05-19T19:04:09.333Z,18.50
2019-05-19T19:06:38.422Z,18.50
2019-05-19T19:09:06.880Z,18.40
2019-05-19T19:11:35.008Z,18.00
2019-05-19T19:14:03.188Z,17.90
2019-05-19T19:16:32.273Z,17.60
2019-05-19T19:19:00.787Z,17.50
2019-05-19T19:21:29.595Z,17.30
2019-05-19T19:23:57.820Z,17.20
2019-05-19T19:26:27.626Z,17.30
2019-05-19T19:28:58.054Z,17.30
2019-05-19T19:31:27.003Z,17.40
2019-05-19T19:33:55.377Z,17.40
2019-05-19T19:36:23.865Z,17.30
2019-05-19T19:38:53.324Z,17.20
2019-05-19T19:41:23.028Z,17.20
2019-05-19T19:43:55.083Z,17.10
2019-05-19T19:46:25.808Z,17.00
2019-05-19T19:48:55.383Z,17.00
2019-05-19T19:51:25.195Z,16.80
2019-05-19T19:53:55.311Z,17.00
2019-05-19T19:56:25.828Z,16.80
2019-05-19T19:58:55.369Z,16.60
2019-05-19T20:01:25.079Z,16.40
2019-05-19T20:03:54.605Z,16.20
2019-05-19T20:06:30.145Z,16.10
2019-05-19T20:08:59.598Z,16.00
2019-05-19T20:11:30.690Z,15.80
2019-05-19T20:14:01.991Z,15.80
2019-05-19T20:16:32.059Z,15.70
2019-05-19T20:19:11.251Z,15.70
2019-05-19T20:21:40.835Z,15.70
2019-05-19T20:24:11.276Z,15.90
2019-05-19T20:26:41.294Z,16.10
2019-05-19T20:29:10.964Z,16.10
2019-05-19T20:31:41.347Z,16.20
2019-05-19T20:34:19.660Z,16.20
2019-05-19T20:36:49.058Z,16.10
2019-05-19T20:39:29.437Z,15.90
2019-05-19T20:42:00.029Z,15.70
2019-05-19T20:44:30.000Z,15.70
2019-05-19T20:46:58.558Z,15.60
2019-05-19T20:49:27.952Z,15.50
2019-05-19T20:51:57.442Z,15.50
2019-05-19T20:54:37.603Z,15.50
2019-05-19T20:57:07.084Z,15.50
2019-05-19T20:59:36.263Z,15.40
2019-05-19T21:02:06.187Z,15.30
2019-05-19T21:04:35.987Z,15.30
2019-05-19T21:07:08.009Z,15.40
2019-05-19T21:09:39.766Z,15.40
2019-05-19T21:12:09.243Z,15.30
2019-05-19T21:14:38.440Z,15.30
2019-05-19T21:17:09.045Z,15.30
2019-05-19T21:19:43.679Z,15.30
2019-05-19T21:22:19.142Z,15.30
2019-05-19T21:24:47.377Z,15.30
2019-05-19T21:27:20.638Z,15.20
2019-05-19T21:29:49.286Z,15.20
2019-05-19T21:32:18.028Z,15.20
2019-05-19T21:34:46.213Z,15.20
2019-05-19T21:37:14.339Z,15.10
2019-05-19T21:39:42.719Z,15.00
2019-05-19T21:42:11.034Z,15.10
2019-05-19T21:44:40.085Z,15.20
2019-05-19T21:47:09.032Z,15.10
2019-05-19T21:49:38.574Z,15.00
2019-05-19T21:52:09.497Z,15.00
2019-05-19T21:54:38.077Z,15.00
2019-05-19T21:57:07.128Z,15.10
2019-05-19T21:59:36.828Z,15.20
2019-05-19T22:02:06.376Z,15.40
2019-05-19T22:04:36.128Z,15.40
2019-05-19T22:07:13.901Z,15.20
2019-05-19T22:09:46.516Z,15.00
2019-05-19T22:12:16.228Z,14.90
2019-05-19T22:14:46.866Z,15.10
2019-05-19T22:17:16.255Z,15.20
2019-05-19T22:19:46.075Z,15.30
2019-05-19T22:22:15.074Z,15.10
2019-05-19T22:24:44.622Z,15.00
2019-05-19T22:27:15.299Z,14.80
2019-05-19T22:29:44.706Z,14.80
2019-05-19T22:32:15.237Z,14.70
2019-05-19T22:34:45.444Z,14.80
2019-05-19T22:37:14.769Z,14.80
2019-05-19T22:39:43.823Z,14.70
2019-05-19T22:42:13.912Z,14.70
2019-05-19T22:44:44.060Z,14.70
2019-05-19T22:47:16.690Z,14.70
2019-05-19T22:49:46.912Z,14.60
2019-05-19T22:52:20.807Z,14.60
2019-05-19T22:54:55.996Z,14.60
2019-05-19T22:57:27.365Z,14.60
2019-05-19T22:59:57.014Z,14.60
2019-05-19T23:02:28.182Z,14.60
2019-05-19T23:04:57.759Z,14.60
2019-05-19T23:07:28.670Z,14.60
2019-05-19T23:09:59.113Z,14.60
2019-05-19T23:12:29.056Z,14.50
2019-05-19T23:14:58.610Z,14.50
2019-05-19T23:17:28.500Z,14.40
2019-05-19T23:19:57.164Z,14.40
2019-05-19T23:22:26.929Z,14.50
2019-05-19T23:24:56.503Z,14.40
2019-05-19T23:27:25.576Z,14.40
2019-05-19T23:29:55.099Z,14.40
2019-05-19T23:32:26.075Z,14.40
2019-05-19T23:34:54.802Z,14.30
2019-05-19T23:37:23.802Z,14.20
2019-05-19T23:39:54.242Z,14.20
2019-05-19T23:42:23.044Z,14.20
2019-05-19T23:44:51.577Z,14.20
2019-05-19T23:47:20.864Z,14.20
2019-05-19T23:49:49.971Z,14.20
2019-05-19T23:52:19.427Z,14.10
2019-05-19T23:54:47.813Z,14.10
2019-05-19T23:57:17.057Z,14.20
2019-05-19T23:59:46.546Z,14.20
